首页
METAR-TAF:

METAR-TAF

机场 :

Volk Field Air National Guard Base

Camp Douglas, 威斯康辛州, 美国

纬度: 43-56N, 经度: 090-16W, 海拔: 277米

当前天气观测

该预报发布于28分钟前的10:26 UTC
静风
温度 17°C
湿度 32%
气压 1014 hPa
能見度: 0.4公里
天空无云

METAR: KVOK 261026Z AUTO 00000KT 1/4SM R27/1600V6000FT FG CLR 17/ A2993 RMK AO2 VIS 1/4V5 SLP134 $

时间: 05:54 (10:54 UTC)

预报

该预报发布于1小时和54分钟前的09:00 UTC
预报有效从26日的 09点(UTC)到 27日的 15点(UTC)
风速6节,风向多变
能见度10公里或以上
多云层高于14000英尺
成为
从 26日的 11点(UTC)到 26日的 12点(UTC)
风速6节,风向多变
能見度: 4800
多云层高于2000英尺
轻雾
成为
从 26日的 14点(UTC)到 26日的 15点(UTC)
风速6节,风向南转南东
能见度10公里或以上
散云层高于2000英尺
成为
从 26日的 19点(UTC)到 26日的 20点(UTC)
风速10节,风向,有时为15节阵风
能見度: 8000
多云层高于2000英尺
小阵雨
短暂存在
从 26日的 20点(UTC)到 27日的 01点(UTC)
风速15节,风向,有时为25节阵风
能見度: 4800
多云层高于2000英尺, 积雨云.
阴天层高于4000英尺
雷暴, 小雨
成为
从 27日的 01点(UTC)到 27日的 02点(UTC)
风速9节,风向南转南东
能见度10公里或以上
散云层高于2000英尺
多云层高于4000英尺
成为
从 27日的 08点(UTC)到 27日的 09点(UTC)
风速6节,风向
能見度: 8000
多云层高于2000英尺
多云层高于4000英尺
轻雾

TAF: KVOK 260900Z 2609/2715 VRB06KT 9999 BKN140 QNH2992INS BECMG 2611/2612 VRB06KT 4800 BR BKN020 QNH2994INS BECMG 2614/2615 16006KT 9999 NSW SCT020 QNH2990INS BECMG 2619/2620 18010G15KT 8000 -SHRA BKN020 510201 QNH2986INS TEMPO 2620/2701 18015G25KT 4800 -TSRA BKN020CB OVC040 BECMG 2701/2702 15009KT 9999 NSW SCT020 BKN040 QNH2989INS BECMG 2708/2709 17006KT 8000 BR BKN020 BKN040 QNH2991INS TX27/2621Z TN19/2609Z

超过4000个机场的气象观测和天气预报(METAR&TAF报告)。

可查询的气象台以黄色和红色小点在地图上表示。

将鼠标移到小点上方,可查看气象台名称。

然后点击查看天气观测和预报。

如需切换地图:点击带黑十字的绿色按钮放大地图;点击带横线的绿色按钮缩小地图;或者点击绿色箭头查看邻近地区的地图。


METAR-TAF: